METAR Formatted Surface Weather Observation
Issued by NWS

Home | Current Version | Previous Version | Text Only | Print | Product List | Glossary On
Versions: 1 2 3 4 5
000
SAUS45 KFGZ 092357 COR
MTRRQE
METAR KRQE 092353Z AUTO 36005KT 10SM FEW120 27/07 A3019 RMK AO2
RAB2255E04 SLP099 P0000 60000 T02720067 10300 20261 58012 TSNO



USA.gov is the U.S. government's official web portal to all federal, state and local government web resources and services.